sensor_id;sensor_type;location;lat;lon;timestamp;pressure;altitude;pressure_sealevel;temperature
67515;BMP280;60646;55.802;37.032;2023-04-03T00:00:39;99403.31;;;14.02
67515;BMP280;60646;55.802;37.032;2023-04-03T00:03:05;99404.53;;;14.01
67515;BMP280;60646;55.802;37.032;2023-04-03T00:05:34;99403.59;;;13.99
67515;BMP280;60646;55.802;37.032;2023-04-03T00:08:00;99411.59;;;14.04
67515;BMP280;60646;55.802;37.032;2023-04-03T00:10:27;99405.38;;;13.96
67515;BMP280;60646;55.802;37.032;2023-04-03T00:12:53;99428.63;;;14.07
67515;BMP280;60646;55.802;37.032;2023-04-03T00:15:19;99410.94;;;13.98
67515;BMP280;60646;55.802;37.032;2023-04-03T00:17:45;99420.13;;;14.03
67515;BMP280;60646;55.802;37.032;2023-04-03T00:20:11;99408.44;;;13.87
67515;BMP280;60646;55.802;37.032;2023-04-03T00:22:36;99410.59;;;13.89
67515;BMP280;60646;55.802;37.032;2023-04-03T00:25:03;99434.09;;;14.01
67515;BMP280;60646;55.802;37.032;2023-04-03T00:27:29;99427.84;;;13.93
67515;BMP280;60646;55.802;37.032;2023-04-03T00:29:54;99410.47;;;13.81
67515;BMP280;60646;55.802;37.032;2023-04-03T00:32:48;99435.09;;;13.98
67515;BMP280;60646;55.802;37.032;2023-04-03T00:35:14;99419.16;;;13.87
67515;BMP280;60646;55.802;37.032;2023-04-03T00:37:42;99430.78;;;13.95
67515;BMP280;60646;55.802;37.032;2023-04-03T00:40:10;99414.50;;;13.88
67515;BMP280;60646;55.802;37.032;2023-04-03T00:42:40;99430.53;;;13.93
67515;BMP280;60646;55.802;37.032;2023-04-03T00:47:31;99413.34;;;13.83
67515;BMP280;60646;55.802;37.032;2023-04-03T00:49:57;99407.53;;;13.79
67515;BMP280;60646;55.802;37.032;2023-04-03T00:52:28;99410.22;;;13.79
67515;BMP280;60646;55.802;37.032;2023-04-03T00:54:57;99417.53;;;13.97
67515;BMP280;60646;55.802;37.032;2023-04-03T00:57:29;99404.34;;;13.81
67515;BMP280;60646;55.802;37.032;2023-04-03T01:00:03;99411.69;;;13.80
67515;BMP280;60646;55.802;37.032;2023-04-03T01:02:30;99406.09;;;13.78
67515;BMP280;60646;55.802;37.032;2023-04-03T01:04:56;99399.38;;;13.72
67515;BMP280;60646;55.802;37.032;2023-04-03T01:07:25;99423.28;;;13.88
67515;BMP280;60646;55.802;37.032;2023-04-03T01:09:56;99412.91;;;13.79
67515;BMP280;60646;55.802;37.032;2023-04-03T01:14:57;99433.53;;;13.90
67515;BMP280;60646;55.802;37.032;2023-04-03T01:17:48;99435.50;;;13.89
67515;BMP280;60646;55.802;37.032;2023-04-03T01:20:21;99428.81;;;13.96
67515;BMP280;60646;55.802;37.032;2023-04-03T01:25:48;99410.41;;;13.68
67515;BMP280;60646;55.802;37.032;2023-04-03T01:30:47;99438.47;;;13.86
67515;BMP280;60646;55.802;37.032;2023-04-03T01:33:15;99435.03;;;13.85
67515;BMP280;60646;55.802;37.032;2023-04-03T01:35:41;99423.66;;;13.79
67515;BMP280;60646;55.802;37.032;2023-04-03T01:38:07;99419.59;;;13.73
67515;BMP280;60646;55.802;37.032;2023-04-03T01:40:33;99416.38;;;13.74
67515;BMP280;60646;55.802;37.032;2023-04-03T01:42:59;99429.25;;;13.81
67515;BMP280;60646;55.802;37.032;2023-04-03T01:45:24;99422.06;;;13.71
67515;BMP280;60646;55.802;37.032;2023-04-03T01:47:50;99421.06;;;13.74
67515;BMP280;60646;55.802;37.032;2023-04-03T01:50:16;99418.66;;;13.70
67515;BMP280;60646;55.802;37.032;2023-04-03T01:52:42;99424.44;;;13.74
67515;BMP280;60646;55.802;37.032;2023-04-03T01:55:08;99421.34;;;13.70
67515;BMP280;60646;55.802;37.032;2023-04-03T01:57:35;99441.00;;;13.78
67515;BMP280;60646;55.802;37.032;2023-04-03T02:00:00;99427.72;;;13.67
67515;BMP280;60646;55.802;37.032;2023-04-03T02:02:29;99416.97;;;13.67
67515;BMP280;60646;55.802;37.032;2023-04-03T02:05:20;99444.56;;;13.86
67515;BMP280;60646;55.802;37.032;2023-04-03T02:07:46;99441.44;;;13.82
67515;BMP280;60646;55.802;37.032;2023-04-03T02:10:12;99440.19;;;13.83
67515;BMP280;60646;55.802;37.032;2023-04-03T02:12:38;99424.44;;;13.74
67515;BMP280;60646;55.802;37.032;2023-04-03T02:15:05;99427.13;;;13.74
67515;BMP280;60646;55.802;37.032;2023-04-03T02:17:31;99429.00;;;13.79
67515;BMP280;60646;55.802;37.032;2023-04-03T02:19:56;99430.53;;;13.75
67515;BMP280;60646;55.802;37.032;2023-04-03T02:22:24;99444.03;;;13.88
67515;BMP280;60646;55.802;37.032;2023-04-03T02:24:50;99440.19;;;13.83
67515;BMP280;60646;55.802;37.032;2023-04-03T02:27:17;99423.75;;;13.74
67515;BMP280;60646;55.802;37.032;2023-04-03T02:29:43;99430.06;;;13.76
67515;BMP280;60646;55.802;37.032;2023-04-03T02:32:09;99424.69;;;13.76
67515;BMP280;60646;55.802;37.032;2023-04-03T02:34:35;99429.75;;;13.80
67515;BMP280;60646;55.802;37.032;2023-04-03T02:37:01;99426.16;;;13.77
67515;BMP280;60646;55.802;37.032;2023-04-03T02:39:28;99432.25;;;13.78
67515;BMP280;60646;55.802;37.032;2023-04-03T02:41:54;99430.78;;;13.77
67515;BMP280;60646;55.802;37.032;2023-04-03T02:44:23;99437.72;;;13.85
67515;BMP280;60646;55.802;37.032;2023-04-03T02:46:49;99423.94;;;13.76
67515;BMP280;60646;55.802;37.032;2023-04-03T02:49:16;99427.59;;;13.78
67515;BMP280;60646;55.802;37.032;2023-04-03T02:51:42;99430.47;;;13.80
67515;BMP280;60646;55.802;37.032;2023-04-03T02:54:08;99440.94;;;13.84
67515;BMP280;60646;55.802;37.032;2023-04-03T02:56:37;99421.06;;;13.74
67515;BMP280;60646;55.802;37.032;2023-04-03T02:59:29;99423.22;;;13.75
67515;BMP280;60646;55.802;37.032;2023-04-03T03:01:55;99439.03;;;13.79
67515;BMP280;60646;55.802;37.032;2023-04-03T03:04:21;99413.63;;;13.61
67515;BMP280;60646;55.802;37.032;2023-04-03T03:06:47;99422.66;;;13.64
67515;BMP280;60646;55.802;37.032;2023-04-03T03:09:13;99426.06;;;13.64
67515;BMP280;60646;55.802;37.032;2023-04-03T03:11:39;99436.22;;;13.71
67515;BMP280;60646;55.802;37.032;2023-04-03T03:14:05;99419.81;;;13.56
67515;BMP280;60646;55.802;37.032;2023-04-03T03:16:32;99439.69;;;13.66
67515;BMP280;60646;55.802;37.032;2023-04-03T03:18:58;99428.69;;;13.51
67515;BMP280;60646;55.802;37.032;2023-04-03T03:21:24;99430.63;;;13.50
67515;BMP280;60646;55.802;37.032;2023-04-03T03:23:50;99432.28;;;13.53
67515;BMP280;60646;55.802;37.032;2023-04-03T03:26:15;99430.69;;;13.45
67515;BMP280;60646;55.802;37.032;2023-04-03T03:28:41;99435.75;;;13.48
67515;BMP280;60646;55.802;37.032;2023-04-03T03:31:08;99429.03;;;13.42
67515;BMP280;60646;55.802;37.032;2023-04-03T03:33:36;99452.53;;;13.55
67515;BMP280;60646;55.802;37.032;2023-04-03T03:36:05;99440.22;;;13.46
67515;BMP280;60646;55.802;37.032;2023-04-03T03:38:31;99445.13;;;13.42
67515;BMP280;60646;55.802;37.032;2023-04-03T03:40:58;99457.16;;;13.54
67515;BMP280;60646;55.802;37.032;2023-04-03T03:43:24;99442.66;;;13.44
67515;BMP280;60646;55.802;37.032;2023-04-03T03:46:17;99458.84;;;13.57
67515;BMP280;60646;55.802;37.032;2023-04-03T03:48:43;99447.59;;;13.40
67515;BMP280;60646;55.802;37.032;2023-04-03T03:51:09;99446.84;;;13.39
67515;BMP280;60646;55.802;37.032;2023-04-03T03:53:37;99434.03;;;13.32
67515;BMP280;60646;55.802;37.032;2023-04-03T03:56:06;99460.66;;;13.49
67515;BMP280;60646;55.802;37.032;2023-04-03T03:58:33;99457.03;;;13.46
67515;BMP280;60646;55.802;37.032;2023-04-03T04:01:02;99448.59;;;13.37
67515;BMP280;60646;55.802;37.032;2023-04-03T04:03:29;99455.84;;;13.42
67515;BMP280;60646;55.802;37.032;2023-04-03T04:05:55;99440.31;;;13.35
67515;BMP280;60646;55.802;37.032;2023-04-03T04:08:22;99466.25;;;13.51
67515;BMP280;60646;55.802;37.032;2023-04-03T04:10:48;99449.47;;;13.45
67515;BMP280;60646;55.802;37.032;2023-04-03T04:13:16;99449.75;;;13.41
67515;BMP280;60646;55.802;37.032;2023-04-03T04:15:42;99458.19;;;13.51
67515;BMP280;60646;55.802;37.032;2023-04-03T04:18:09;99450.94;;;13.46
67515;BMP280;60646;55.802;37.032;2023-04-03T04:20:35;99458.91;;;13.51
67515;BMP280;60646;55.802;37.032;2023-04-03T04:23:01;99460.06;;;13.56
67515;BMP280;60646;55.802;37.032;2023-04-03T04:25:28;99463.66;;;13.64
67515;BMP280;60646;55.802;37.032;2023-04-03T04:27:54;99455.59;;;13.64
67515;BMP280;60646;55.802;37.032;2023-04-03T04:30:19;99449.44;;;13.69
67515;BMP280;60646;55.802;37.032;2023-04-03T04:32:47;99479.97;;;13.85
67515;BMP280;60646;55.802;37.032;2023-04-03T04:35:14;99466.84;;;13.81
67515;BMP280;60646;55.802;37.032;2023-04-03T04:37:42;99464.56;;;13.85
67515;BMP280;60646;55.802;37.032;2023-04-03T04:40:09;99466.03;;;13.86
67515;BMP280;60646;55.802;37.032;2023-04-03T04:42:35;99472.28;;;13.94
67515;BMP280;60646;55.802;37.032;2023-04-03T04:45:00;99455.75;;;13.90
67515;BMP280;60646;55.802;37.032;2023-04-03T04:47:29;99475.03;;;14.07
67515;BMP280;60646;55.802;37.032;2023-04-03T04:49:55;99448.34;;;13.96
67515;BMP280;60646;55.802;37.032;2023-04-03T04:52:21;99451.22;;;13.98
67515;BMP280;60646;55.802;37.032;2023-04-03T04:54:47;99459.13;;;14.09
67515;BMP280;60646;55.802;37.032;2023-04-03T04:57:13;99460.06;;;14.12
67515;BMP280;60646;55.802;37.032;2023-04-03T04:59:40;99479.94;;;14.22
67515;BMP280;60646;55.802;37.032;2023-04-03T05:02:24;99471.69;;;14.20
67515;BMP280;60646;55.802;37.032;2023-04-03T05:04:50;99474.06;;;14.24
67515;BMP280;60646;55.802;37.032;2023-04-03T05:07:21;99466.00;;;14.24
67515;BMP280;60646;55.802;37.032;2023-04-03T05:09:47;99465.91;;;14.29
67515;BMP280;60646;55.802;37.032;2023-04-03T05:12:16;99462.97;;;14.33
67515;BMP280;60646;55.802;37.032;2023-04-03T05:14:48;99469.91;;;14.41
67515;BMP280;60646;55.802;37.032;2023-04-03T05:17:15;99468.56;;;14.48
67515;BMP280;60646;55.802;37.032;2023-04-03T05:19:48;99467.97;;;14.55
67515;BMP280;60646;55.802;37.032;2023-04-03T05:22:14;99478.13;;;14.62
67515;BMP280;60646;55.802;37.032;2023-04-03T05:25:50;99483.31;;;14.73
67515;BMP280;60646;55.802;37.032;2023-04-03T05:28:17;99476.47;;;14.72
67515;BMP280;60646;55.802;37.032;2023-04-03T05:30:44;99457.53;;;14.64
67515;BMP280;60646;55.802;37.032;2023-04-03T05:33:11;99473.91;;;14.80
67515;BMP280;60646;55.802;37.032;2023-04-03T05:35:43;99493.06;;;15.02
67515;BMP280;60646;55.802;37.032;2023-04-03T05:38:13;99462.81;;;14.83
67515;BMP280;60646;55.802;37.032;2023-04-03T05:40:39;99497.19;;;15.03
67515;BMP280;60646;55.802;37.032;2023-04-03T05:43:06;99470.59;;;14.87
67515;BMP280;60646;55.802;37.032;2023-04-03T05:45:35;99480.16;;;15.01
67515;BMP280;60646;55.802;37.032;2023-04-03T05:48:01;99474.66;;;15.06
67515;BMP280;60646;55.802;37.032;2023-04-03T05:50:28;99473.63;;;15.09
67515;BMP280;60646;55.802;37.032;2023-04-03T05:52:56;99498.03;;;15.24
67515;BMP280;60646;55.802;37.032;2023-04-03T05:55:25;99494.81;;;15.26
67515;BMP280;60646;55.802;37.032;2023-04-03T05:57:51;99484.38;;;15.22
67515;BMP280;60646;55.802;37.032;2023-04-03T06:00:17;99485.63;;;15.21
67515;BMP280;60646;55.802;37.032;2023-04-03T06:02:52;99489.34;;;15.31
67515;BMP280;60646;55.802;37.032;2023-04-03T06:05:22;99484.38;;;15.35
67515;BMP280;60646;55.802;37.032;2023-04-03T06:07:49;99485.63;;;15.34
67515;BMP280;60646;55.802;37.032;2023-04-03T06:10:15;99508.47;;;15.54
67515;BMP280;60646;55.802;37.032;2023-04-03T06:12:42;99509.59;;;15.59
67515;BMP280;60646;55.802;37.032;2023-04-03T06:15:08;99502.97;;;15.60
67515;BMP280;60646;55.802;37.032;2023-04-03T06:17:36;99513.13;;;15.67
67515;BMP280;60646;55.802;37.032;2023-04-03T06:20:04;99516.94;;;15.71
67515;BMP280;60646;55.802;37.032;2023-04-03T06:22:30;99509.19;;;15.68
67515;BMP280;60646;55.802;37.032;2023-04-03T06:24:57;99521.28;;;15.74
67515;BMP280;60646;55.802;37.032;2023-04-03T06:27:22;99519.72;;;15.79
67515;BMP280;60646;55.802;37.032;2023-04-03T06:29:49;99529.25;;;15.80
67515;BMP280;60646;55.802;37.032;2023-04-03T06:32:16;99517.66;;;15.72
67515;BMP280;60646;55.802;37.032;2023-04-03T06:34:41;99530.69;;;15.81
67515;BMP280;60646;55.802;37.032;2023-04-03T06:37:15;99520.97;;;15.78
67515;BMP280;60646;55.802;37.032;2023-04-03T06:39:41;99509.38;;;15.70
67515;BMP280;60646;55.802;37.032;2023-04-03T06:42:07;99527.16;;;15.86
67515;BMP280;60646;55.802;37.032;2023-04-03T06:44:37;99519.72;;;15.79
67515;BMP280;60646;55.802;37.032;2023-04-03T06:47:03;99520.13;;;15.83
67515;BMP280;60646;55.802;37.032;2023-04-03T06:49:29;99512.38;;;15.79
67515;BMP280;60646;55.802;37.032;2023-04-03T06:51:55;99524.66;;;15.88
67515;BMP280;60646;55.802;37.032;2023-04-03T06:54:22;99524.22;;;15.97
67515;BMP280;60646;55.802;37.032;2023-04-03T06:56:48;99522.97;;;15.98
67515;BMP280;60646;55.802;37.032;2023-04-03T06:59:14;99530.22;;;16.03
67515;BMP280;60646;55.802;37.032;2023-04-03T07:01:40;99523.78;;;16.06
67515;BMP280;60646;55.802;37.032;2023-04-03T07:04:07;99533.31;;;16.07
67515;BMP280;60646;55.802;37.032;2023-04-03T07:06:34;99526.69;;;16.08
67515;BMP280;60646;55.802;37.032;2023-04-03T07:09:00;99539.00;;;16.17
67515;BMP280;60646;55.802;37.032;2023-04-03T07:11:27;99530.19;;;16.16
67515;BMP280;60646;55.802;37.032;2023-04-03T07:13:53;99517.56;;;16.11
67515;BMP280;60646;55.802;37.032;2023-04-03T07:16:19;99537.81;;;16.25
67515;BMP280;60646;55.802;37.032;2023-04-03T07:18:46;99530.81;;;16.22
67515;BMP280;60646;55.802;37.032;2023-04-03T07:21:12;99541.50;;;16.35
67515;BMP280;60646;55.802;37.032;2023-04-03T07:24:03;99524.56;;;16.27
67515;BMP280;60646;55.802;37.032;2023-04-03T07:26:28;99528.03;;;16.35
67515;BMP280;60646;55.802;37.032;2023-04-03T07:28:54;99521.59;;;16.38
67515;BMP280;60646;55.802;37.032;2023-04-03T07:31:20;99526.13;;;16.43
67515;BMP280;60646;55.802;37.032;2023-04-03T07:33:53;99533.53;;;16.50
67515;BMP280;60646;55.802;37.032;2023-04-03T07:36:20;99528.72;;;16.49
67515;BMP280;60646;55.802;37.032;2023-04-03T07:38:46;99547.50;;;16.62
67515;BMP280;60646;55.802;37.032;2023-04-03T07:41:15;99541.75;;;16.65
67515;BMP280;60646;55.802;37.032;2023-04-03T07:43:41;99532.91;;;16.57
67515;BMP280;60646;55.802;37.032;2023-04-03T07:46:07;99528.97;;;16.58
67515;BMP280;60646;55.802;37.032;2023-04-03T07:48:33;99533.50;;;16.63
67515;BMP280;60646;55.802;37.032;2023-04-03T07:51:01;99536.59;;;16.67
67515;BMP280;60646;55.802;37.032;2023-04-03T07:53:27;99549.59;;;16.77
67515;BMP280;60646;55.802;37.032;2023-04-03T07:55:58;99542.56;;;16.73
67515;BMP280;60646;55.802;37.032;2023-04-03T07:58:23;99538.81;;;16.77
67515;BMP280;60646;55.802;37.032;2023-04-03T08:00:49;99549.31;;;16.88
67515;BMP280;60646;55.802;37.032;2023-04-03T08:03:16;99541.03;;;16.86
67515;BMP280;60646;55.802;37.032;2023-04-03T08:05:44;99548.31;;;16.98
67515;BMP280;60646;55.802;37.032;2023-04-03T08:08:11;99550.88;;;17.04
67515;BMP280;60646;55.802;37.032;2023-04-03T08:11:16;99550.78;;;17.17
67515;BMP280;60646;55.802;37.032;2023-04-03T08:14:18;99541.94;;;17.09
67515;BMP280;60646;55.802;37.032;2023-04-03T08:16:46;99543.06;;;17.21
67515;BMP280;60646;55.802;37.032;2023-04-03T08:19:13;99541.44;;;17.18
67515;BMP280;60646;55.802;37.032;2023-04-03T08:21:41;99539.69;;;17.28
67515;BMP280;60646;55.802;37.032;2023-04-03T08:24:08;99552.91;;;17.39
67515;BMP280;60646;55.802;37.032;2023-04-03T08:26:34;99536.47;;;17.37
67515;BMP280;60646;55.802;37.032;2023-04-03T08:29:00;99541.03;;;17.50
67515;BMP280;60646;55.802;37.032;2023-04-03T08:31:26;99549.34;;;17.59
67515;BMP280;60646;55.802;37.032;2023-04-03T08:33:52;99541.44;;;17.61
67515;BMP280;60646;55.802;37.032;2023-04-03T08:36:23;99560.63;;;17.78
67515;BMP280;60646;55.802;37.032;2023-04-03T08:38:51;99556.66;;;17.79
67515;BMP280;60646;55.802;37.032;2023-04-03T08:41:42;99548.75;;;17.89
67515;BMP280;60646;55.802;37.032;2023-04-03T08:52:18;99551.28;;;17.94
67515;BMP280;60646;55.802;37.032;2023-04-03T08:55:00;99563.00;;;18.04
67515;BMP280;60646;55.802;37.032;2023-04-03T08:57:35;99565.38;;;18.08
67515;BMP280;60646;55.802;37.032;2023-04-03T09:00:23;99550.41;;;18.07
67515;BMP280;60646;55.802;37.032;2023-04-03T09:02:52;99572.25;;;18.17
67515;BMP280;60646;55.802;37.032;2023-04-03T09:05:20;99578.75;;;18.21
67515;BMP280;60646;55.802;37.032;2023-04-03T09:10:41;99581.25;;;18.27
67515;BMP280;60646;55.802;37.032;2023-04-03T09:15:45;99566.13;;;18.24
67515;BMP280;60646;55.802;37.032;2023-04-03T09:18:21;99568.13;;;18.31
67515;BMP280;60646;55.802;37.032;2023-04-03T09:26:53;99575.88;;;18.42
67515;BMP280;60646;55.802;37.032;2023-04-03T09:28:56;99592.28;;;18.59
67515;BMP280;60646;55.802;37.032;2023-04-03T09:31:29;99568.34;;;18.48
67515;BMP280;60646;55.802;37.032;2023-04-03T09:34:01;99576.97;;;18.54
67515;BMP280;60646;55.802;37.032;2023-04-03T09:36:48;99569.06;;;18.48
67515;BMP280;60646;55.802;37.032;2023-04-03T09:41:40;99578.25;;;18.53
67515;BMP280;60646;55.802;37.032;2023-04-03T09:44:21;99544.66;;;18.41
67515;BMP280;60646;55.802;37.032;2023-04-03T09:46:47;99578.41;;;18.55
67515;BMP280;60646;55.802;37.032;2023-04-03T09:49:13;99588.53;;;18.62
67515;BMP280;60646;55.802;37.032;2023-04-03T09:51:39;99563.09;;;18.42
67515;BMP280;60646;55.802;37.032;2023-04-03T09:57:05;99579.66;;;18.54
67515;BMP280;60646;55.802;37.032;2023-04-03T09:59:32;99575.16;;;18.49
67515;BMP280;60646;55.802;37.032;2023-04-03T10:02:04;99591.78;;;18.60
67515;BMP280;60646;55.802;37.032;2023-04-03T10:04:44;99584.19;;;18.59
67515;BMP280;60646;55.802;37.032;2023-04-03T10:07:31;99591.41;;;18.64
67515;BMP280;60646;55.802;37.032;2023-04-03T10:10:17;99589.94;;;18.63
67515;BMP280;60646;55.802;37.032;2023-04-03T10:12:43;99579.88;;;18.56
67515;BMP280;60646;55.802;37.032;2023-04-03T10:15:14;99586.34;;;18.68
67515;BMP280;60646;55.802;37.032;2023-04-03T10:23:31;99594.47;;;18.83
67515;BMP280;60646;55.802;37.032;2023-04-03T10:29:04;99582.78;;;18.80
67515;BMP280;60646;55.802;37.032;2023-04-03T10:34:10;99593.56;;;18.96
67515;BMP280;60646;55.802;37.032;2023-04-03T10:39:28;99594.25;;;19.04
67515;BMP280;60646;55.802;37.032;2023-04-03T10:42:12;99589.91;;;19.08
67515;BMP280;60646;55.802;37.032;2023-04-03T10:44:56;99591.72;;;19.13
67515;BMP280;60646;55.802;37.032;2023-04-03T10:48:07;99597.84;;;19.21
67515;BMP280;60646;55.802;37.032;2023-04-03T10:53:31;99588.78;;;19.26
67515;BMP280;60646;55.802;37.032;2023-04-03T10:59:13;99588.59;;;19.32
67515;BMP280;60646;55.802;37.032;2023-04-03T11:01:42;99585.03;;;19.29
67515;BMP280;60646;55.802;37.032;2023-04-03T11:04:09;99578.69;;;19.27
67515;BMP280;60646;55.802;37.032;2023-04-03T11:06:44;99570.38;;;19.32
67515;BMP280;60646;55.802;37.032;2023-04-03T11:11:49;99576.34;;;19.38
67515;BMP280;60646;55.802;37.032;2023-04-03T11:14:31;99578.09;;;19.43
67515;BMP280;60646;55.802;37.032;2023-04-03T11:22:23;99580.41;;;19.54
67515;BMP280;60646;55.802;37.032;2023-04-03T11:25:02;99578.94;;;19.61
67515;BMP280;60646;55.802;37.032;2023-04-03T11:27:35;99585.41;;;19.66
67515;BMP280;60646;55.802;37.032;2023-04-03T11:30:06;99571.69;;;19.64
67515;BMP280;60646;55.802;37.032;2023-04-03T11:34:59;99573.66;;;19.71
67515;BMP280;60646;55.802;37.032;2023-04-03T11:37:36;99587.13;;;19.86
67515;BMP280;60646;55.802;37.032;2023-04-03T11:42:43;99575.19;;;19.89
67515;BMP280;60646;55.802;37.032;2023-04-03T12:00:47;99572.63;;;20.23
67515;BMP280;60646;55.802;37.032;2023-04-03T12:13:42;99561.94;;;20.25
67515;BMP280;60646;55.802;37.032;2023-04-03T12:22:08;99570.41;;;20.29
67515;BMP280;60646;55.802;37.032;2023-04-03T12:24:36;99546.63;;;20.12
67515;BMP280;60646;55.802;37.032;2023-04-03T12:27:29;99569.84;;;20.30
67515;BMP280;60646;55.802;37.032;2023-04-03T12:30:21;99554.41;;;20.16
67515;BMP280;60646;55.802;37.032;2023-04-03T12:35:55;99560.38;;;20.14
67515;BMP280;60646;55.802;37.032;2023-04-03T12:38:26;99569.97;;;20.08
67515;BMP280;60646;55.802;37.032;2023-04-03T12:46:38;99576.59;;;19.97
67515;BMP280;60646;55.802;37.032;2023-04-03T12:49:18;99569.78;;;19.89
67515;BMP280;60646;55.802;37.032;2023-04-03T12:51:48;99567.66;;;19.80
67515;BMP280;60646;55.802;37.032;2023-04-03T12:54:18;99574.84;;;19.85
67515;BMP280;60646;55.802;37.032;2023-04-03T12:56:45;99581.22;;;19.80
67515;BMP280;60646;55.802;37.032;2023-04-03T12:59:20;99579.75;;;19.79
67515;BMP280;60646;55.802;37.032;2023-04-03T13:01:57;99573.81;;;19.73
67515;BMP280;60646;55.802;37.032;2023-04-03T13:04:24;99578.91;;;19.69
67515;BMP280;60646;55.802;37.032;2023-04-03T13:06:50;99571.03;;;19.55
67515;BMP280;60646;55.802;37.032;2023-04-03T13:09:30;99574.25;;;19.62
67515;BMP280;60646;55.802;37.032;2023-04-03T13:12:10;99570.81;;;19.53
67515;BMP280;60646;55.802;37.032;2023-04-03T13:14:37;99563.13;;;19.42
67515;BMP280;60646;55.802;37.032;2023-04-03T13:17:12;99573.41;;;19.44
67515;BMP280;60646;55.802;37.032;2023-04-03T13:19:38;99566.22;;;19.31
67515;BMP280;60646;55.802;37.032;2023-04-03T13:25:16;99580.47;;;19.39
67515;BMP280;60646;55.802;37.032;2023-04-03T13:27:43;99571.28;;;19.27
67515;BMP280;60646;55.802;37.032;2023-04-03T13:30:32;99580.28;;;19.37
67515;BMP280;60646;55.802;37.032;2023-04-03T13:33:02;99588.47;;;19.30
67515;BMP280;60646;55.802;37.032;2023-04-03T13:35:38;99589.84;;;19.31
67515;BMP280;60646;55.802;37.032;2023-04-03T13:38:29;99578.00;;;19.19
67515;BMP280;60646;55.802;37.032;2023-04-03T13:40:56;99587.91;;;19.24
67515;BMP280;60646;55.802;37.032;2023-04-03T13:43:27;99585.75;;;19.22
67515;BMP280;60646;55.802;37.032;2023-04-03T13:46:27;99595.13;;;19.21
67515;BMP280;60646;55.802;37.032;2023-04-03T13:48:53;99584.69;;;19.10
67515;BMP280;60646;55.802;37.032;2023-04-03T13:51:26;99589.19;;;19.15
67515;BMP280;60646;55.802;37.032;2023-04-03T13:53:57;99593.03;;;19.12
67515;BMP280;60646;55.802;37.032;2023-04-03T13:56:39;99583.09;;;19.07
67515;BMP280;60646;55.802;37.032;2023-04-03T14:01:47;99590.09;;;19.10
67515;BMP280;60646;55.802;37.032;2023-04-03T14:04:18;99587.78;;;19.07
67515;BMP280;60646;55.802;37.032;2023-04-03T14:06:45;99591.53;;;19.04
67515;BMP280;60646;55.802;37.032;2023-04-03T14:09:12;99575.84;;;18.95
67515;BMP280;60646;55.802;37.032;2023-04-03T14:11:39;99577.88;;;18.94
67515;BMP280;60646;55.802;37.032;2023-04-03T14:14:13;99588.16;;;19.03
67515;BMP280;60646;55.802;37.032;2023-04-03T14:16:41;99577.69;;;18.92
67515;BMP280;60646;55.802;37.032;2023-04-03T14:19:17;99592.66;;;19.01
67515;BMP280;60646;55.802;37.032;2023-04-03T14:21:44;99593.56;;;18.96
67515;BMP280;60646;55.802;37.032;2023-04-03T14:24:12;99582.22;;;18.90
67515;BMP280;60646;55.802;37.032;2023-04-03T14:26:37;99580.94;;;18.83
67515;BMP280;60646;55.802;37.032;2023-04-03T14:29:04;99599.34;;;18.92
67515;BMP280;60646;55.802;37.032;2023-04-03T14:31:34;99574.09;;;18.74
67515;BMP280;60646;55.802;37.032;2023-04-03T14:33:59;99593.03;;;18.82
67515;BMP280;60646;55.802;37.032;2023-04-03T14:36:27;99604.78;;;18.84
67515;BMP280;60646;55.802;37.032;2023-04-03T14:38:54;99606.56;;;18.82
67515;BMP280;60646;55.802;37.032;2023-04-03T14:41:23;99593.56;;;18.73
67515;BMP280;60646;55.802;37.032;2023-04-03T14:43:50;99608.75;;;18.76
67515;BMP280;60646;55.802;37.032;2023-04-03T14:46:37;99610.16;;;18.77
67515;BMP280;60646;55.802;37.032;2023-04-03T14:49:18;99598.63;;;18.61
67515;BMP280;60646;55.802;37.032;2023-04-03T14:51:44;99612.53;;;18.65
67515;BMP280;60646;55.802;37.032;2023-04-03T14:54:16;99601.13;;;18.59
67515;BMP280;60646;55.802;37.032;2023-04-03T14:56:42;99599.34;;;18.47
67515;BMP280;60646;55.802;37.032;2023-04-03T14:59:12;99596.28;;;18.43
67515;BMP280;60646;55.802;37.032;2023-04-03T15:01:38;99612.31;;;18.41
67515;BMP280;60646;55.802;37.032;2023-04-03T15:04:29;99588.84;;;18.28
67515;BMP280;60646;55.802;37.032;2023-04-03T15:07:21;99582.00;;;18.20
67515;BMP280;60646;55.802;37.032;2023-04-03T15:09:52;99601.66;;;18.28
67515;BMP280;60646;55.802;37.032;2023-04-03T15:12:19;99549.84;;;17.86
67515;BMP280;60646;55.802;37.032;2023-04-03T15:14:46;99582.66;;;18.05
67515;BMP280;60646;55.802;37.032;2023-04-03T15:17:17;99605.44;;;18.25
67515;BMP280;60646;55.802;37.032;2023-04-03T15:19:45;99602.88;;;18.11
67515;BMP280;60646;55.802;37.032;2023-04-03T15:22:17;99579.94;;;17.97
67515;BMP280;60646;55.802;37.032;2023-04-03T15:24:43;99580.84;;;17.92
67515;BMP280;60646;55.802;37.032;2023-04-03T15:27:13;99592.03;;;17.96
67515;BMP280;60646;55.802;37.032;2023-04-03T15:29:42;99604.84;;;18.03
67515;BMP280;60646;55.802;37.032;2023-04-03T15:32:09;99608.06;;;17.94
67515;BMP280;60646;55.802;37.032;2023-04-03T15:34:36;99618.34;;;18.03
67515;BMP280;60646;55.802;37.032;2023-04-03T15:37:02;99608.41;;;17.91
67515;BMP280;60646;55.802;37.032;2023-04-03T15:39:28;99618.31;;;17.96
67515;BMP280;60646;55.802;37.032;2023-04-03T15:41:55;99618.69;;;17.92
67515;BMP280;60646;55.802;37.032;2023-04-03T15:44:21;99611.06;;;17.83
67515;BMP280;60646;55.802;37.032;2023-04-03T15:46:47;99624.78;;;17.85
67515;BMP280;60646;55.802;37.032;2023-04-03T15:49:18;99617.19;;;17.84
67515;BMP280;60646;55.802;37.032;2023-04-03T15:51:46;99604.72;;;17.73
67515;BMP280;60646;55.802;37.032;2023-04-03T15:54:12;99600.88;;;17.61
67515;BMP280;60646;55.802;37.032;2023-04-03T16:07:31;99629.28;;;17.55
67515;BMP280;60646;55.802;37.032;2023-04-03T16:09:57;99602.56;;;17.36
67515;BMP280;60646;55.802;37.032;2023-04-03T16:12:23;99611.34;;;17.29
67515;BMP280;60646;55.802;37.032;2023-04-03T16:14:49;99609.69;;;17.26
67515;BMP280;60646;55.802;37.032;2023-04-03T16:17:14;99610.34;;;17.19